createdAt,value
2022-11-08T00:01:59.547Z,11.20
2022-11-08T00:04:28.124Z,11.20
2022-11-08T00:07:13.679Z,11.10
2022-11-08T00:09:59.093Z,11.10
2022-11-08T00:12:44.405Z,11.10
2022-11-08T00:15:11.345Z,11.10
2022-11-08T00:17:38.212Z,11.10
2022-11-08T00:20:08.907Z,11.00
2022-11-08T00:22:36.121Z,11.00
2022-11-08T00:25:03.382Z,11.00
2022-11-08T00:27:30.230Z,11.00
2022-11-08T00:29:57.566Z,11.00
2022-11-08T00:32:26.185Z,11.00
2022-11-08T00:34:53.518Z,11.00
2022-11-08T00:37:22.753Z,11.00
2022-11-08T00:39:49.805Z,10.90
2022-11-08T00:42:16.683Z,10.90
2022-11-08T00:44:43.483Z,10.90
2022-11-08T00:47:10.509Z,10.90
2022-11-08T00:49:37.386Z,10.80
2022-11-08T00:52:04.703Z,10.80
2022-11-08T00:54:32.956Z,10.80
2022-11-08T00:56:59.782Z,10.80
2022-11-08T00:59:26.674Z,10.70
2022-11-08T01:01:53.695Z,10.70
2022-11-08T01:04:20.798Z,10.70
2022-11-08T01:06:48.332Z,10.70
2022-11-08T01:09:15.257Z,10.60
2022-11-08T01:11:46.362Z,10.60
2022-11-08T01:14:14.459Z,10.60
2022-11-08T01:16:41.817Z,10.50
2022-11-08T01:19:09.087Z,10.50
2022-11-08T01:21:36.475Z,10.50
2022-11-08T01:24:03.579Z,10.50
2022-11-08T01:26:30.564Z,10.50
2022-11-08T01:28:59.149Z,10.40
2022-11-08T01:31:28.537Z,10.50
2022-11-08T01:33:56.614Z,10.40
2022-11-08T01:36:25.836Z,10.20
2022-11-08T01:38:53.328Z,10.40
2022-11-08T01:41:21.986Z,10.40
2022-11-08T01:43:49.858Z,10.30
2022-11-08T01:46:39.867Z,10.30
2022-11-08T01:49:48.438Z,10.30
2022-11-08T01:52:27.869Z,10.30
2022-11-08T01:55:00.326Z,10.30
2022-11-08T01:57:36.241Z,10.30
2022-11-08T02:00:06.818Z,10.30
2022-11-08T02:02:37.096Z,10.30
2022-11-08T02:05:08.175Z,10.30
2022-11-08T02:07:35.242Z,10.20
2022-11-08T02:10:03.145Z,10.20
2022-11-08T02:12:30.419Z,10.30
2022-11-08T02:14:57.423Z,10.20
2022-11-08T02:17:24.264Z,10.10
2022-11-08T02:19:52.530Z,10.10
2022-11-08T02:22:29.184Z,10.10
2022-11-08T02:24:58.540Z,10.00
2022-11-08T02:27:26.007Z,10.00
2022-11-08T02:29:53.954Z,10.00
2022-11-08T02:32:21.282Z,10.00
2022-11-08T02:34:50.640Z,10.00
2022-11-08T02:37:20.034Z,10.00
2022-11-08T02:39:47.932Z,9.90
2022-11-08T02:42:18.471Z,9.90
2022-11-08T02:44:45.623Z,9.90
2022-11-08T02:47:12.507Z,9.90
2022-11-08T02:49:39.477Z,9.90
2022-11-08T02:52:06.716Z,9.90
2022-11-08T02:54:33.733Z,9.90
2022-11-08T02:57:00.594Z,9.90
2022-11-08T02:59:28.767Z,9.90
2022-11-08T03:01:55.682Z,9.90
2022-11-08T03:04:22.644Z,9.90
2022-11-08T03:06:49.597Z,9.90
2022-11-08T03:09:16.492Z,9.90
2022-11-08T03:11:43.390Z,9.90
2022-11-08T03:14:10.260Z,9.90
2022-11-08T03:16:38.507Z,9.90
2022-11-08T03:19:05.453Z,9.90
2022-11-08T03:21:34.249Z,9.90
2022-11-08T03:24:01.032Z,9.90
2022-11-08T03:26:27.895Z,9.90
2022-11-08T03:28:55.535Z,9.90
2022-11-08T03:31:22.409Z,9.90
2022-11-08T03:33:50.539Z,9.90
2022-11-08T03:36:17.411Z,9.90
2022-11-08T03:38:44.252Z,9.80
2022-11-08T03:41:11.034Z,9.80
2022-11-08T03:43:37.880Z,9.80
2022-11-08T03:46:04.870Z,9.80
2022-11-08T03:48:31.748Z,9.80
2022-11-08T03:50:59.929Z,9.80
2022-11-08T03:53:26.716Z,9.70
2022-11-08T03:55:53.538Z,9.70
2022-11-08T03:58:20.720Z,9.60
2022-11-08T04:00:47.860Z,9.60
2022-11-08T04:03:14.758Z,9.60
2022-11-08T04:05:41.573Z,9.50
2022-11-08T04:08:09.811Z,9.40
2022-11-08T04:10:36.787Z,9.40
2022-11-08T04:13:26.517Z,9.30
2022-11-08T04:15:55.053Z,9.30
2022-11-08T04:18:40.240Z,9.20
2022-11-08T04:21:22.231Z,9.20
2022-11-08T04:23:52.212Z,9.20
2022-11-08T04:26:21.486Z,9.10
2022-11-08T04:28:48.349Z,9.10
2022-11-08T04:31:17.337Z,9.00
2022-11-08T04:33:44.432Z,9.00
2022-11-08T04:36:13.585Z,8.90
2022-11-08T04:38:40.506Z,8.90
2022-11-08T04:41:11.325Z,8.90
2022-11-08T04:43:38.468Z,8.80
2022-11-08T04:46:07.307Z,8.90
2022-11-08T04:48:34.505Z,8.90
2022-11-08T04:51:02.398Z,8.90
2022-11-08T04:53:29.661Z,8.80
2022-11-08T04:56:03.928Z,8.80
2022-11-08T04:58:35.530Z,8.80
2022-11-08T05:01:03.551Z,8.80
2022-11-08T05:03:30.528Z,8.80
2022-11-08T05:06:01.077Z,8.80
2022-11-08T05:08:27.986Z,8.80
2022-11-08T05:11:00.393Z,8.80
2022-11-08T05:13:27.268Z,8.80
2022-11-08T05:15:59.049Z,8.80
2022-11-08T05:18:25.870Z,8.80
2022-11-08T05:21:12.866Z,8.80
2022-11-08T05:23:39.821Z,8.80
2022-11-08T05:26:07.418Z,8.80
2022-11-08T05:28:34.359Z,8.80
2022-11-08T05:31:02.860Z,8.80
2022-11-08T05:33:29.970Z,8.80
2022-11-08T05:35:56.869Z,8.80
2022-11-08T05:38:23.711Z,8.80
2022-11-08T05:40:50.600Z,8.80
2022-11-08T05:43:17.801Z,8.70
2022-11-08T05:45:45.666Z,8.70
2022-11-08T05:48:13.903Z,8.70
2022-11-08T05:50:40.881Z,8.70
2022-11-08T05:53:07.761Z,8.70
2022-11-08T05:55:34.667Z,8.70
2022-11-08T05:58:01.503Z,8.70
2022-11-08T06:00:28.363Z,8.70
2022-11-08T06:02:55.335Z,8.70
2022-11-08T06:05:23.688Z,8.70
2022-11-08T06:07:52.616Z,8.60
2022-11-08T06:10:19.481Z,8.60
2022-11-08T06:12:46.470Z,8.60
2022-11-08T06:15:13.516Z,8.60
2022-11-08T06:17:40.750Z,8.60
2022-11-08T06:20:09.175Z,8.50
2022-11-08T06:22:37.486Z,8.50
2022-11-08T06:25:04.829Z,8.50
2022-11-08T06:27:32.145Z,8.50
2022-11-08T06:29:59.011Z,8.40
2022-11-08T06:32:25.961Z,8.40
2022-11-08T06:34:52.748Z,8.40
2022-11-08T06:37:19.663Z,8.40
2022-11-08T06:39:47.837Z,8.40
2022-11-08T06:42:14.642Z,8.40
2022-11-08T06:44:41.552Z,8.50
2022-11-08T06:47:08.352Z,8.50
2022-11-08T06:49:37.148Z,8.60
2022-11-08T06:52:04.584Z,8.70
2022-11-08T06:54:31.569Z,8.80
2022-11-08T06:57:02.467Z,8.80
2022-11-08T06:59:29.480Z,8.90
2022-11-08T07:01:57.201Z,9.00
2022-11-08T07:04:24.380Z,9.00
2022-11-08T07:06:51.288Z,9.10
2022-11-08T07:09:18.627Z,9.10
2022-11-08T07:11:45.513Z,9.10
2022-11-08T07:14:13.768Z,9.20
2022-11-08T07:16:40.890Z,9.20
2022-11-08T07:19:07.852Z,9.20
2022-11-08T07:21:34.712Z,9.30
2022-11-08T07:24:01.573Z,9.40
2022-11-08T07:26:28.577Z,9.40
2022-11-08T07:28:55.382Z,9.50
2022-11-08T07:31:24.026Z,9.50
2022-11-08T07:33:50.900Z,9.60
2022-11-08T07:36:17.764Z,9.70
2022-11-08T07:38:44.698Z,9.80
2022-11-08T07:41:11.767Z,9.90
2022-11-08T07:43:39.161Z,10.10
2022-11-08T07:46:06.223Z,10.30
2022-11-08T07:48:35.747Z,10.70
2022-11-08T07:51:02.848Z,11.00
2022-11-08T07:53:30.476Z,11.90
2022-11-08T07:55:58.321Z,12.40
2022-11-08T07:58:25.422Z,12.70
2022-11-08T08:00:52.330Z,12.80
2022-11-08T08:03:19.787Z,12.80
2022-11-08T08:05:57.999Z,12.70
2022-11-08T08:08:27.895Z,12.60
2022-11-08T08:10:57.573Z,12.50
2022-11-08T08:13:24.498Z,12.40
2022-11-08T08:15:51.461Z,12.30
2022-11-08T08:18:20.925Z,12.20
2022-11-08T08:20:49.282Z,12.10
2022-11-08T08:23:16.439Z,12.10
2022-11-08T08:25:43.648Z,12.20
2022-11-08T08:28:11.129Z,12.30
2022-11-08T08:30:38.182Z,12.60
2022-11-08T08:33:27.443Z,13.10
2022-11-08T08:35:56.352Z,13.90
2022-11-08T08:38:23.310Z,14.80
2022-11-08T08:40:50.681Z,15.20
2022-11-08T08:43:18.063Z,15.60
2022-11-08T08:45:45.162Z,16.20
2022-11-08T08:48:12.142Z,16.30
2022-11-08T08:50:39.077Z,16.10
2022-11-08T08:53:07.546Z,15.90
2022-11-08T08:55:37.382Z,15.60
2022-11-08T08:58:04.709Z,15.30
2022-11-08T09:03:18.902Z,14.80
2022-11-08T09:05:46.863Z,14.60
2022-11-08T09:08:15.779Z,14.40
2022-11-08T09:10:43.232Z,14.30
2022-11-08T09:13:10.343Z,14.10
2022-11-08T09:15:39.271Z,14.10
2022-11-08T09:18:06.868Z,14.00
2022-11-08T09:20:33.956Z,14.00
2022-11-08T09:23:02.366Z,14.00
2022-11-08T09:25:31.007Z,14.10
2022-11-08T09:27:58.024Z,14.50
2022-11-08T09:30:26.305Z,15.10
2022-11-08T09:33:00.767Z,15.80
2022-11-08T09:35:29.595Z,16.70
2022-11-08T09:37:57.291Z,17.80
2022-11-08T09:40:31.610Z,18.70
2022-11-08T09:43:28.919Z,19.50
2022-11-08T09:45:57.431Z,20.10
2022-11-08T09:48:29.450Z,20.60
2022-11-08T09:50:59.143Z,20.90
2022-11-08T09:53:35.117Z,21.30
2022-11-08T09:56:07.905Z,21.30
2022-11-08T09:58:43.273Z,20.70
2022-11-08T10:01:12.698Z,20.00
2022-11-08T10:03:47.166Z,19.20
2022-11-08T10:07:02.468Z,18.60
2022-11-08T10:10:03.003Z,18.10
2022-11-08T10:12:44.079Z,17.80
2022-11-08T10:15:25.274Z,17.50
2022-11-08T10:18:21.200Z,17.20
2022-11-08T10:21:00.015Z,17.10
2022-11-08T10:23:36.715Z,17.30
2022-11-08T10:26:09.676Z,17.90
2022-11-08T10:28:40.671Z,18.40
2022-11-08T10:31:12.567Z,19.20
2022-11-08T10:33:44.003Z,19.70
2022-11-08T10:36:17.252Z,20.30
2022-11-08T10:38:53.020Z,20.80
2022-11-08T10:41:26.430Z,21.20
2022-11-08T10:43:57.992Z,21.10
2022-11-08T10:46:38.301Z,20.80
2022-11-08T10:49:16.462Z,20.70
2022-11-08T10:51:44.970Z,20.40
2022-11-08T10:54:39.792Z,20.10
2022-11-08T10:57:06.699Z,19.80
2022-11-08T10:59:33.612Z,19.60
2022-11-08T11:02:02.103Z,19.50
2022-11-08T11:04:31.265Z,19.40
2022-11-08T11:07:02.099Z,19.20
2022-11-08T11:09:29.375Z,19.00
2022-11-08T11:11:57.713Z,18.80
2022-11-08T11:14:24.793Z,18.50
2022-11-08T11:16:57.779Z,18.10
2022-11-08T11:19:28.490Z,17.70
2022-11-08T11:21:58.041Z,17.40
2022-11-08T11:24:25.516Z,17.20
2022-11-08T11:27:02.656Z,17.00
2022-11-08T11:29:31.515Z,16.70
2022-11-08T11:32:19.210Z,16.30
2022-11-08T11:34:53.674Z,16.10
2022-11-08T11:37:36.405Z,16.00
2022-11-08T11:40:19.128Z,15.90
2022-11-08T11:42:54.363Z,15.80
2022-11-08T11:45:28.885Z,15.70
2022-11-08T11:47:57.923Z,15.70
2022-11-08T11:50:31.662Z,15.50
2022-11-08T11:53:00.707Z,15.30
2022-11-08T11:55:42.860Z,15.10
2022-11-08T11:58:28.763Z,15.10
2022-11-08T12:01:01.899Z,15.10
2022-11-08T12:03:46.031Z,15.20
2022-11-08T12:06:23.616Z,15.20
2022-11-08T12:09:05.455Z,15.20
2022-11-08T12:11:44.309Z,15.30
2022-11-08T12:14:45.864Z,15.20
2022-11-08T12:17:29.076Z,15.20
2022-11-08T12:20:22.801Z,15.10
2022-11-08T12:23:08.521Z,15.20
2022-11-08T12:25:43.750Z,15.20
2022-11-08T12:28:27.386Z,15.20
2022-11-08T12:30:58.834Z,15.20
2022-11-08T12:33:37.757Z,15.30
2022-11-08T12:36:16.286Z,15.40
2022-11-08T12:38:54.843Z,15.60
2022-11-08T12:41:29.120Z,15.70
2022-11-08T12:44:36.575Z,15.80
2022-11-08T12:47:15.589Z,15.90
2022-11-08T12:49:54.287Z,15.90
2022-11-08T12:52:36.611Z,16.00
2022-11-08T12:55:11.467Z,16.10
2022-11-08T12:57:40.068Z,16.10
2022-11-08T13:00:14.516Z,16.10
2022-11-08T13:02:44.015Z,16.20
2022-11-08T13:05:19.715Z,16.30
2022-11-08T13:07:54.014Z,16.30
2022-11-08T13:10:30.744Z,16.40
2022-11-08T13:13:08.664Z,16.60
2022-11-08T13:15:35.774Z,16.70
2022-11-08T13:18:36.126Z,16.80
2022-11-08T13:21:37.880Z,16.80
2022-11-08T13:24:50.609Z,16.90
2022-11-08T13:27:31.589Z,16.90
2022-11-08T13:30:04.087Z,16.90
2022-11-08T13:32:48.567Z,16.90
2022-11-08T13:35:28.108Z,16.90
2022-11-08T13:38:02.957Z,16.90
2022-11-08T13:41:00.065Z,16.90
2022-11-08T13:43:30.142Z,16.90
2022-11-08T13:46:17.549Z,17.00
2022-11-08T13:49:07.332Z,17.10
2022-11-08T13:51:35.654Z,17.00
2022-11-08T13:54:03.850Z,17.00
2022-11-08T13:56:47.200Z,17.00
2022-11-08T13:59:47.454Z,17.00
2022-11-08T14:05:25.851Z,16.90
2022-11-08T14:08:17.662Z,16.90
2022-11-08T14:11:12.733Z,16.90
2022-11-08T14:13:58.054Z,16.90
2022-11-08T14:16:31.099Z,16.90
2022-11-08T14:19:14.557Z,16.90
2022-11-08T14:21:51.396Z,16.80
2022-11-08T14:24:23.197Z,16.80
2022-11-08T14:26:50.526Z,16.80
2022-11-08T14:29:18.855Z,16.70
2022-11-08T14:31:48.210Z,16.60
2022-11-08T14:34:28.998Z,16.50
2022-11-08T14:36:58.032Z,16.40
2022-11-08T14:39:27.635Z,16.30
2022-11-08T14:41:58.614Z,16.20
2022-11-08T14:44:25.996Z,16.10
2022-11-08T14:46:54.419Z,16.10
2022-11-08T14:49:23.455Z,16.10
2022-11-08T14:52:14.653Z,16.00
2022-11-08T14:54:44.203Z,16.00
2022-11-08T14:57:32.941Z,15.90
2022-11-08T15:00:03.555Z,15.90
2022-11-08T15:02:31.116Z,15.80
2022-11-08T15:04:58.081Z,15.80
2022-11-08T15:07:27.083Z,15.80
2022-11-08T15:09:54.424Z,15.80
2022-11-08T15:12:23.629Z,15.80
2022-11-08T15:14:55.375Z,15.80
2022-11-08T15:17:31.326Z,15.70
2022-11-08T15:20:18.018Z,15.60
2022-11-08T15:22:47.853Z,15.60
2022-11-08T15:25:28.947Z,15.60
2022-11-08T15:27:57.301Z,15.60
2022-11-08T15:30:36.604Z,15.60
2022-11-08T15:33:03.886Z,15.50
2022-11-08T15:35:34.476Z,15.50
2022-11-08T15:38:04.731Z,15.40
2022-11-08T15:40:35.929Z,15.40
2022-11-08T15:43:03.280Z,15.40
2022-11-08T15:45:32.954Z,15.30
2022-11-08T15:48:11.585Z,15.30
2022-11-08T15:50:38.596Z,15.30
2022-11-08T15:53:06.868Z,15.30
2022-11-08T15:55:38.104Z,15.30
2022-11-08T15:58:05.516Z,15.20
2022-11-08T16:00:36.287Z,15.20
2022-11-08T16:03:03.584Z,15.20
2022-11-08T16:05:34.444Z,15.10
2022-11-08T16:08:01.355Z,15.10
2022-11-08T16:10:34.756Z,15.00
2022-11-08T16:13:04.525Z,15.00
2022-11-08T16:15:33.425Z,14.90
2022-11-08T16:18:00.916Z,14.80
2022-11-08T16:20:30.729Z,14.80
2022-11-08T16:22:59.177Z,14.80
2022-11-08T16:25:28.717Z,14.70
2022-11-08T16:27:59.294Z,14.70
2022-11-08T16:30:26.942Z,14.60
2022-11-08T16:32:53.962Z,14.60
2022-11-08T16:35:21.610Z,14.60
2022-11-08T16:37:49.749Z,14.50
2022-11-08T16:40:19.315Z,14.50
2022-11-08T16:42:47.837Z,14.50
2022-11-08T16:45:19.608Z,14.40
2022-11-08T16:47:51.860Z,14.40
2022-11-08T16:50:21.323Z,14.40
2022-11-08T16:52:48.242Z,14.30
2022-11-08T16:55:17.997Z,14.30
2022-11-08T16:57:45.820Z,14.30
2022-11-08T17:00:17.909Z,14.30
2022-11-08T17:02:48.301Z,14.30
2022-11-08T17:05:17.386Z,14.30
2022-11-08T17:07:44.324Z,14.30
2022-11-08T17:10:14.837Z,14.20
2022-11-08T17:12:41.703Z,14.20
2022-11-08T17:15:12.209Z,14.10
2022-11-08T17:17:40.694Z,14.10
2022-11-08T17:20:09.248Z,14.10
2022-11-08T17:22:36.784Z,14.10
2022-11-08T17:25:03.963Z,14.10
2022-11-08T17:27:30.872Z,14.10
2022-11-08T17:29:58.066Z,14.00
2022-11-08T17:32:24.922Z,14.10
2022-11-08T17:34:53.198Z,14.00
2022-11-08T17:37:20.958Z,14.00
2022-11-08T17:39:47.838Z,14.00
2022-11-08T17:42:15.700Z,14.00
2022-11-08T17:44:42.550Z,14.00
2022-11-08T17:47:09.500Z,14.00
2022-11-08T17:49:42.735Z,14.00
2022-11-08T17:52:12.187Z,14.00
2022-11-08T17:54:39.062Z,14.00
2022-11-08T17:57:05.969Z,14.00
2022-11-08T17:59:32.844Z,14.00
2022-11-08T18:01:59.809Z,13.90
2022-11-08T18:04:26.740Z,13.90
2022-11-08T18:06:53.700Z,13.90
2022-11-08T18:09:22.353Z,13.90
2022-11-08T18:11:49.249Z,13.90
2022-11-08T18:14:18.500Z,13.80
2022-11-08T18:16:49.285Z,13.90
2022-11-08T18:19:16.381Z,13.80
2022-11-08T18:21:43.872Z,13.80
2022-11-08T18:24:11.536Z,13.70
2022-11-08T18:26:40.651Z,13.80
2022-11-08T18:29:07.926Z,13.70
2022-11-08T18:31:34.999Z,13.70
2022-11-08T18:34:02.086Z,13.70
2022-11-08T18:36:30.920Z,13.70
2022-11-08T18:38:59.992Z,13.70
2022-11-08T18:41:28.808Z,13.70
2022-11-08T18:43:58.728Z,13.70
2022-11-08T18:46:28.129Z,13.60
2022-11-08T18:48:55.330Z,13.70
2022-11-08T18:51:23.763Z,13.70
2022-11-08T18:53:52.781Z,13.60
2022-11-08T18:56:20.097Z,13.70
2022-11-08T18:58:47.111Z,13.60
2022-11-08T19:01:15.602Z,13.70
2022-11-08T19:03:43.188Z,13.70
2022-11-08T19:06:10.287Z,13.70
2022-11-08T19:08:37.447Z,13.60
2022-11-08T19:11:06.719Z,13.60
2022-11-08T19:13:35.624Z,13.70
2022-11-08T19:16:05.605Z,13.70
2022-11-08T19:18:35.044Z,13.70
2022-11-08T19:21:05.219Z,13.70
2022-11-08T19:23:32.796Z,13.70
2022-11-08T19:26:01.980Z,13.70
2022-11-08T19:28:32.951Z,13.60
2022-11-08T19:31:00.292Z,13.60
2022-11-08T19:33:29.161Z,13.70
2022-11-08T19:36:00.960Z,13.60
2022-11-08T19:38:28.193Z,13.60
2022-11-08T19:40:55.108Z,13.60
2022-11-08T19:43:22.123Z,13.50
2022-11-08T19:45:53.897Z,13.50
2022-11-08T19:48:21.394Z,13.50
2022-11-08T19:50:48.597Z,13.50
2022-11-08T19:53:16.799Z,13.50
2022-11-08T19:55:43.747Z,13.50
2022-11-08T19:58:10.713Z,13.50
2022-11-08T20:00:39.115Z,13.50
2022-11-08T20:03:06.885Z,13.40
2022-11-08T20:05:33.777Z,13.40
2022-11-08T20:08:04.723Z,13.40
2022-11-08T20:10:32.992Z,13.40
2022-11-08T20:12:59.950Z,13.30
2022-11-08T20:15:27.210Z,13.30
2022-11-08T20:17:54.139Z,13.30
2022-11-08T20:20:21.090Z,13.20
2022-11-08T20:22:48.368Z,13.20
2022-11-08T20:25:15.521Z,13.20
2022-11-08T20:27:43.790Z,13.20
2022-11-08T20:30:11.825Z,13.20
2022-11-08T20:32:38.769Z,13.20
2022-11-08T20:35:06.538Z,13.20
2022-11-08T20:37:33.380Z,13.10
2022-11-08T20:40:00.213Z,13.20
2022-11-08T20:42:27.166Z,13.10
2022-11-08T20:44:55.353Z,13.10
2022-11-08T20:47:22.246Z,13.10
2022-11-08T20:49:49.177Z,13.20
2022-11-08T20:52:16.929Z,13.10
2022-11-08T20:54:44.155Z,13.20
2022-11-08T20:57:11.135Z,13.20
2022-11-08T20:59:38.000Z,13.20
2022-11-08T21:02:06.664Z,13.20
2022-11-08T21:04:33.818Z,13.20
2022-11-08T21:08:00.048Z,13.20
2022-11-08T21:09:50.320Z,13.20
2022-11-08T21:12:18.007Z,13.20
2022-11-08T21:14:44.990Z,13.30
2022-11-08T21:17:21.840Z,13.30
2022-11-08T21:19:50.901Z,13.40
2022-11-08T21:22:18.422Z,13.40
2022-11-08T21:24:46.648Z,13.40
2022-11-08T21:27:14.449Z,13.50
2022-11-08T21:29:41.497Z,13.50
2022-11-08T21:32:08.380Z,13.60
2022-11-08T21:34:36.702Z,13.60
2022-11-08T21:37:03.595Z,13.60
2022-11-08T21:39:30.460Z,13.60
2022-11-08T21:41:57.368Z,13.70
2022-11-08T21:44:24.258Z,13.70
2022-11-08T21:46:51.169Z,13.70
2022-11-08T21:49:18.076Z,13.70
2022-11-08T21:51:46.367Z,13.70
2022-11-08T21:54:13.354Z,13.80
2022-11-08T21:56:40.330Z,13.80
2022-11-08T21:59:07.173Z,13.80
2022-11-08T22:01:34.144Z,13.80
2022-11-08T22:04:01.166Z,13.70
2022-11-08T22:06:28.505Z,13.70
2022-11-08T22:08:56.957Z,13.70
2022-11-08T22:11:23.957Z,13.70
2022-11-08T22:13:50.943Z,13.60
2022-11-08T22:16:17.904Z,13.70
2022-11-08T22:21:37.929Z,13.60
2022-11-08T22:24:07.282Z,13.50
2022-11-08T22:26:34.263Z,13.70
2022-11-08T22:29:01.229Z,13.70
2022-11-08T22:31:28.065Z,13.70
2022-11-08T22:33:55.074Z,13.70
2022-11-08T22:36:21.953Z,13.70
2022-11-08T22:38:48.830Z,13.70
2022-11-08T22:41:17.820Z,13.70
2022-11-08T22:43:45.132Z,13.70
2022-11-08T22:46:12.423Z,13.70
2022-11-08T22:48:39.688Z,13.70
2022-11-08T22:51:07.141Z,13.70
2022-11-08T22:53:34.543Z,13.60
2022-11-08T22:56:02.268Z,13.60
2022-11-08T22:58:32.714Z,13.60
2022-11-08T23:00:59.877Z,13.60
2022-11-08T23:03:26.745Z,13.70
2022-11-08T23:05:56.741Z,13.60
2022-11-08T23:08:25.501Z,13.50
2022-11-08T23:11:11.255Z,13.60
2022-11-08T23:13:58.650Z,13.60
2022-11-08T23:16:38.019Z,13.60
2022-11-08T23:19:25.942Z,13.60
2022-11-08T23:22:12.412Z,13.60
2022-11-08T23:24:39.901Z,13.60
2022-11-08T23:27:25.416Z,13.50
2022-11-08T23:30:12.003Z,13.50
2022-11-08T23:32:42.819Z,13.60
2022-11-08T23:35:09.923Z,13.60
2022-11-08T23:37:36.967Z,13.60
2022-11-08T23:40:23.493Z,13.60
2022-11-08T23:43:21.149Z,13.60
2022-11-08T23:45:49.758Z,13.60
2022-11-08T23:48:16.691Z,13.60
2022-11-08T23:50:48.657Z,13.60
2022-11-08T23:53:15.756Z,13.70
2022-11-08T23:55:42.738Z,13.60
2022-11-08T23:58:09.519Z,13.70
